createdAt,value
2023-01-05T00:01:14.697Z,99962.75
2023-01-05T00:04:19.959Z,99969.03
2023-01-05T00:07:23.072Z,99964.88
2023-01-05T00:10:43.689Z,99964.53
2023-01-05T00:14:04.205Z,99986.50
2023-01-05T00:17:26.442Z,99976.00
2023-01-05T00:20:49.012Z,99981.28
2023-01-05T00:23:52.049Z,99986.03
2023-01-05T00:26:55.082Z,99998.69
2023-01-05T00:29:59.287Z,100001.50
2023-01-05T00:33:02.275Z,100015.09
2023-01-05T00:36:12.189Z,100024.19
2023-01-05T00:39:15.349Z,100013.31
2023-01-05T00:42:18.598Z,100016.75
2023-01-05T00:45:22.083Z,100018.41
2023-01-05T00:48:25.459Z,100018.41
2023-01-05T00:51:29.801Z,100017.59
2023-01-05T00:54:33.076Z,100012.94
2023-01-05T00:57:36.899Z,100027.38
2023-01-05T01:00:47.366Z,100036.25
2023-01-05T01:03:50.871Z,100035.53
2023-01-05T01:06:55.516Z,100029.28
2023-01-05T01:09:58.614Z,100042.53
2023-01-05T01:13:02.563Z,100043.34
2023-01-05T01:16:09.695Z,100035.81
2023-01-05T01:19:16.178Z,100038.50
2023-01-05T01:22:20.651Z,100046.53
2023-01-05T01:25:24.198Z,100042.03
2023-01-05T01:28:27.332Z,100047.38
2023-01-05T01:31:30.482Z,100048.19
2023-01-05T01:34:34.388Z,100051.97
2023-01-05T01:37:39.450Z,100059.09
2023-01-05T01:40:45.160Z,100056.81
2023-01-05T01:43:51.458Z,100041.56
2023-01-05T01:46:56.771Z,100049.38
2023-01-05T01:50:03.852Z,100048.19
2023-01-05T01:53:15.910Z,100053.41
2023-01-05T01:56:22.810Z,100052.09
2023-01-05T01:59:27.114Z,100053.19
2023-01-05T02:02:31.356Z,100055.78
2023-01-05T02:05:37.157Z,100038.41
2023-01-05T02:08:41.668Z,100046.53
2023-01-05T02:11:56.366Z,100053.41
2023-01-05T02:15:12.978Z,100053.41
2023-01-05T02:18:41.487Z,100055.03
2023-01-05T02:21:56.285Z,100049.38
2023-01-05T02:25:30.603Z,100049.00
2023-01-05T02:28:53.927Z,100043.81
2023-01-05T02:32:04.877Z,100034.59
2023-01-05T02:35:20.880Z,100041.81
2023-01-05T02:38:34.635Z,100033.91
2023-01-05T02:41:49.590Z,100033.75
2023-01-05T02:44:53.095Z,100028.81
2023-01-05T02:47:58.460Z,100046.78
2023-01-05T02:51:07.439Z,100049.84
2023-01-05T02:54:17.959Z,100041.69
2023-01-05T02:57:47.018Z,100053.16
2023-01-05T03:00:58.394Z,100051.50
2023-01-05T03:04:13.775Z,100054.09
2023-01-05T03:07:23.217Z,100054.56
2023-01-05T03:10:44.285Z,100052.91
2023-01-05T03:13:55.283Z,100059.28
2023-01-05T03:17:00.735Z,100070.91
2023-01-05T03:20:11.940Z,100070.44
2023-01-05T03:23:36.735Z,100082.25
2023-01-05T03:26:59.385Z,100065.72
2023-01-05T03:30:22.525Z,100079.63
2023-01-05T03:33:54.704Z,100079.19
2023-01-05T03:37:04.843Z,100071.75
2023-01-05T03:40:14.829Z,100081.19
2023-01-05T03:43:19.656Z,100091.47
2023-01-05T03:46:24.686Z,100070.44
2023-01-05T03:49:29.342Z,100083.44
2023-01-05T03:52:36.316Z,100092.66
2023-01-05T03:55:39.483Z,100096.00
2023-01-05T03:58:43.571Z,100090.06
2023-01-05T04:01:46.776Z,100091.81
2023-01-05T04:04:51.215Z,100097.41
2023-01-05T04:07:55.825Z,100094.06
2023-01-05T04:10:59.048Z,100101.06
2023-01-05T04:14:02.838Z,100092.41
2023-01-05T04:17:05.960Z,100090.41
2023-01-05T04:20:10.501Z,100097.66
2023-01-05T04:23:15.474Z,100119.59
2023-01-05T04:26:18.811Z,100103.31
2023-01-05T04:29:25.361Z,100117.13
2023-01-05T04:32:33.693Z,100115.38
2023-01-05T04:35:43.339Z,100101.28
2023-01-05T04:38:50.661Z,100087.72
2023-01-05T04:41:55.190Z,100075.88
2023-01-05T04:44:58.966Z,100076.22
2023-01-05T04:48:03.652Z,100063.22
2023-01-05T04:51:07.355Z,100073.03
2023-01-05T04:54:20.304Z,100066.91
2023-01-05T04:57:25.569Z,100072.56
2023-01-05T05:00:31.562Z,100094.69
2023-01-05T05:03:35.827Z,100078.94
2023-01-05T05:06:41.731Z,100065.47
2023-01-05T05:09:46.282Z,100102.56
2023-01-05T05:12:49.576Z,100071.63
2023-01-05T05:15:52.832Z,100083.19
2023-01-05T05:18:56.074Z,100070.44
2023-01-05T05:22:02.199Z,100090.28
2023-01-05T05:25:08.929Z,100082.22
2023-01-05T05:28:15.725Z,100089.34
2023-01-05T05:31:19.018Z,100083.66
2023-01-05T05:34:22.455Z,100070.03
2023-01-05T05:37:25.542Z,100055.75
2023-01-05T05:40:30.183Z,100056.69
2023-01-05T05:43:33.295Z,100056.81
2023-01-05T05:46:36.562Z,100056.81
2023-01-05T05:49:39.776Z,100061.19
2023-01-05T05:52:43.177Z,100048.69
2023-01-05T05:55:51.133Z,100050.34
2023-01-05T05:59:00.799Z,100052.94
2023-01-05T06:02:04.671Z,100045.34
2023-01-05T06:05:09.110Z,100049.50
2023-01-05T06:08:12.152Z,100052.66
2023-01-05T06:11:16.641Z,100094.25
2023-01-05T06:14:19.938Z,100082.66
2023-01-05T06:17:23.940Z,100091.94
2023-01-05T06:20:26.984Z,100086.63
2023-01-05T06:23:30.260Z,100099.44
2023-01-05T06:26:34.652Z,100094.09
2023-01-05T06:29:37.687Z,100109.41
2023-01-05T06:32:40.770Z,100109.75
2023-01-05T06:35:43.879Z,100115.97
2023-01-05T06:38:47.000Z,100118.28
2023-01-05T06:41:51.345Z,100122.22
2023-01-05T06:44:54.827Z,100130.63
2023-01-05T06:47:58.985Z,100123.91
2023-01-05T06:51:02.434Z,100125.53
2023-01-05T06:54:05.791Z,100133.00
2023-01-05T06:57:10.599Z,100148.63
2023-01-05T07:00:18.942Z,100152.38
2023-01-05T07:03:26.962Z,100161.94
2023-01-05T07:06:30.403Z,100171.06
2023-01-05T07:09:33.826Z,100170.25
2023-01-05T07:12:38.562Z,100161.38
2023-01-05T07:15:41.956Z,100176.63
2023-01-05T07:18:45.142Z,100185.81
2023-01-05T07:21:53.239Z,100197.13
2023-01-05T07:24:59.754Z,100196.44
2023-01-05T07:28:04.867Z,100207.00
2023-01-05T07:31:08.516Z,100213.34
2023-01-05T07:34:12.225Z,100241.78
2023-01-05T07:37:18.203Z,100231.53
2023-01-05T07:40:21.316Z,100236.44
2023-01-05T07:43:25.767Z,100266.03
2023-01-05T07:46:28.935Z,100274.97
2023-01-05T07:49:32.218Z,100281.25
2023-01-05T07:52:35.361Z,100290.25
2023-01-05T07:55:38.827Z,100299.31
2023-01-05T07:58:43.877Z,100319.78
2023-01-05T08:01:47.160Z,100319.28
2023-01-05T08:04:50.363Z,100323.00
2023-01-05T08:07:53.818Z,100323.13
2023-01-05T08:10:56.958Z,100349.91
2023-01-05T08:14:02.668Z,100356.34
2023-01-05T08:17:05.976Z,100357.28
2023-01-05T08:20:10.692Z,100354.88
2023-01-05T08:23:14.122Z,100375.56
2023-01-05T08:26:29.451Z,100386.47
2023-01-05T08:29:33.950Z,100391.97
2023-01-05T08:32:37.451Z,100389.81
2023-01-05T08:35:45.695Z,100382.97
2023-01-05T08:38:52.002Z,100390.41
2023-01-05T08:42:02.465Z,100402.38
2023-01-05T08:45:10.161Z,100396.53
2023-01-05T08:48:13.252Z,100379.19
2023-01-05T08:51:16.539Z,100401.31
2023-01-05T08:54:19.642Z,100400.72
2023-01-05T08:57:22.681Z,100413.88
2023-01-05T09:00:27.160Z,100388.75
2023-01-05T09:03:30.294Z,100415.66
2023-01-05T09:06:36.814Z,100414.31
2023-01-05T09:09:40.131Z,100419.78
2023-01-05T09:12:43.229Z,100411.81
2023-01-05T09:15:47.585Z,100425.63
2023-01-05T09:18:51.582Z,100431.94
2023-01-05T09:21:54.703Z,100447.22
2023-01-05T09:24:57.887Z,100444.53
2023-01-05T09:28:01.004Z,100445.25
2023-01-05T09:31:10.183Z,100454.72
2023-01-05T09:34:13.425Z,100458.25
2023-01-05T09:37:16.535Z,100460.50
2023-01-05T09:40:19.898Z,100477.31
2023-01-05T09:43:28.549Z,100469.00
2023-01-05T09:46:37.479Z,100494.72
2023-01-05T09:49:41.837Z,100500.03
2023-01-05T09:52:44.956Z,100512.78
2023-01-05T09:55:49.362Z,100522.88
2023-01-05T09:58:54.280Z,100521.44
2023-01-05T10:02:02.492Z,100547.19
2023-01-05T10:05:07.958Z,100546.06
2023-01-05T10:08:20.328Z,100539.22
2023-01-05T10:11:48.733Z,100542.53
2023-01-05T10:14:57.630Z,100550.31
2023-01-05T10:18:10.632Z,100549.50
2023-01-05T10:21:22.452Z,100550.56
2023-01-05T10:24:39.517Z,100552.00
2023-01-05T10:27:56.515Z,100561.13
2023-01-05T10:31:03.097Z,100559.78
2023-01-05T10:34:21.483Z,100562.91
2023-01-05T10:37:53.555Z,100567.16
2023-01-05T10:41:06.917Z,100580.78
2023-01-05T10:44:52.944Z,100574.13
2023-01-05T10:47:58.170Z,100577.38
2023-01-05T10:51:03.670Z,100584.09
2023-01-05T10:54:07.567Z,100586.81
2023-01-05T10:57:41.025Z,100588.47
2023-01-05T11:00:44.528Z,100568.22
2023-01-05T11:04:26.547Z,100598.56
2023-01-05T11:07:15.153Z,100601.06
2023-01-05T11:10:32.558Z,100599.31
2023-01-05T11:13:39.097Z,100595.34
2023-01-05T11:16:51.636Z,100613.44
2023-01-05T11:19:57.309Z,100595.34
2023-01-05T11:23:01.729Z,100634.53
2023-01-05T11:26:23.616Z,100621.53
2023-01-05T11:29:27.100Z,100630.81
2023-01-05T11:32:32.384Z,100635.38
2023-01-05T11:35:39.547Z,100645.13
2023-01-05T11:38:44.020Z,100653.13
2023-01-05T11:41:47.238Z,100641.41
2023-01-05T11:44:53.580Z,100636.72
2023-01-05T11:47:58.769Z,100659.94
2023-01-05T11:51:02.814Z,100676.53
2023-01-05T11:54:27.285Z,100670.50
2023-01-05T11:57:30.350Z,100669.69
2023-01-05T12:00:40.165Z,100683.91
2023-01-05T12:04:02.152Z,100683.69
2023-01-05T12:07:18.445Z,100695.69
2023-01-05T12:10:46.920Z,100703.00
2023-01-05T12:14:11.778Z,100709.22
2023-01-05T12:17:16.894Z,100704.03
2023-01-05T12:20:57.622Z,100721.69
2023-01-05T12:24:44.248Z,100715.69
2023-01-05T12:28:40.900Z,100719.22
2023-01-05T12:36:59.749Z,100732.16
2023-01-05T12:40:33.345Z,100747.41
2023-01-05T12:43:48.181Z,100762.47
2023-01-05T12:47:09.817Z,100770.38
2023-01-05T12:50:26.362Z,100767.06
2023-01-05T12:53:42.999Z,100778.47
2023-01-05T12:56:52.685Z,100779.53
2023-01-05T13:00:05.656Z,100779.72
2023-01-05T13:03:17.910Z,100776.28
2023-01-05T13:06:24.473Z,100795.63
2023-01-05T13:09:32.301Z,100793.88
2023-01-05T13:12:36.973Z,100808.72
2023-01-05T13:16:00.024Z,100812.75
2023-01-05T13:19:07.811Z,100807.88
2023-01-05T13:22:20.273Z,100816.22
2023-01-05T13:25:26.355Z,100811.13
2023-01-05T13:28:31.421Z,100834.69
2023-01-05T13:32:05.747Z,100839.47
2023-01-05T13:35:31.038Z,100855.34
2023-01-05T13:39:19.360Z,100862.59
2023-01-05T13:42:54.245Z,100864.19
2023-01-05T13:46:12.485Z,100871.25
2023-01-05T13:49:45.712Z,100876.06
2023-01-05T13:53:06.802Z,100885.06
2023-01-05T13:56:19.816Z,100898.53
2023-01-05T13:59:35.177Z,100896.19
2023-01-05T14:02:46.467Z,100906.28
2023-01-05T14:05:57.539Z,100919.06
2023-01-05T14:12:44.573Z,100923.06
2023-01-05T14:15:47.604Z,100940.72
2023-01-05T14:18:52.756Z,100941.91
2023-01-05T14:22:23.493Z,100942.28
2023-01-05T14:25:49.407Z,100971.06
2023-01-05T14:28:52.503Z,100972.94
2023-01-05T14:31:55.614Z,100970.91
2023-01-05T14:35:06.351Z,100981.63
2023-01-05T14:38:21.104Z,100994.00
2023-01-05T14:41:26.981Z,100996.03
2023-01-05T14:44:36.039Z,101006.50
2023-01-05T14:47:44.528Z,101019.28
2023-01-05T14:50:47.735Z,101028.31
2023-01-05T14:53:54.795Z,101029.50
2023-01-05T14:57:31.010Z,101029.59
2023-01-05T15:00:57.747Z,101048.91
2023-01-05T15:04:06.696Z,101055.25
2023-01-05T15:07:26.226Z,101065.84
2023-01-05T15:10:58.629Z,101086.84
2023-01-05T15:14:35.011Z,101082.72
2023-01-05T15:18:04.378Z,101093.19
2023-01-05T15:21:44.455Z,101097.66
2023-01-05T15:25:11.803Z,101110.88
2023-01-05T15:29:06.625Z,101115.25
2023-01-05T15:32:17.249Z,101128.19
2023-01-05T15:35:30.238Z,101134.28
2023-01-05T15:38:47.464Z,101137.03
2023-01-05T15:41:56.197Z,101149.91
2023-01-05T15:45:00.842Z,101152.66
2023-01-05T15:48:14.111Z,101160.66
2023-01-05T15:51:25.576Z,101165.06
2023-01-05T15:54:46.638Z,101160.13
2023-01-05T15:57:55.988Z,101169.13
2023-01-05T16:01:07.195Z,101171.88
2023-01-05T16:04:14.917Z,101177.94
2023-01-05T16:07:18.086Z,101185.72
2023-01-05T16:10:25.341Z,101179.06
2023-01-05T16:13:35.663Z,101178.53
2023-01-05T16:16:54.411Z,101195.09
2023-01-05T16:20:02.045Z,101195.22
2023-01-05T16:23:09.204Z,101195.22
2023-01-05T16:26:17.701Z,101211.81
2023-01-05T16:29:33.781Z,101204.34
2023-01-05T16:32:41.758Z,101217.28
2023-01-05T16:35:54.912Z,101216.53
2023-01-05T16:39:16.966Z,101222.00
2023-01-05T16:42:40.834Z,101228.72
2023-01-05T16:45:44.334Z,101243.41
2023-01-05T16:48:52.979Z,101236.59
2023-01-05T16:51:57.670Z,101239.19
2023-01-05T16:55:28.323Z,101242.41
2023-01-05T16:58:38.585Z,101233.72
2023-01-05T17:01:45.338Z,101243.34
2023-01-05T17:04:50.158Z,101240.59
2023-01-05T17:08:07.067Z,101243.16
2023-01-05T17:11:12.698Z,101247.47
2023-01-05T17:14:18.148Z,101258.72
2023-01-05T17:17:21.249Z,101261.47
2023-01-05T17:20:33.059Z,101259.00
2023-01-05T17:23:42.299Z,101272.22
2023-01-05T17:26:46.163Z,101267.06
2023-01-05T17:29:52.162Z,101279.06
2023-01-05T17:32:56.009Z,101277.47
2023-01-05T17:36:01.733Z,101283.56
2023-01-05T17:39:05.419Z,101295.09
2023-01-05T17:42:27.437Z,101295.81
2023-01-05T17:45:30.995Z,101299.16
2023-01-05T17:48:34.437Z,101293.97
2023-01-05T17:51:38.857Z,101295.88
2023-01-05T17:54:42.427Z,101301.00
2023-01-05T17:57:45.734Z,101308.75
2023-01-05T18:00:51.826Z,101310.69
2023-01-05T18:03:54.840Z,101323.00
2023-01-05T18:07:00.942Z,101328.19
2023-01-05T18:10:05.724Z,101332.59
2023-01-05T18:13:10.227Z,101335.31
2023-01-05T18:16:15.055Z,101346.66
2023-01-05T18:19:18.093Z,101351.00
2023-01-05T18:22:22.645Z,101353.69
2023-01-05T18:25:26.773Z,101367.53
2023-01-05T18:28:30.229Z,101358.22
2023-01-05T18:31:34.913Z,101366.91
2023-01-05T18:34:40.241Z,101364.31
2023-01-05T18:37:45.393Z,101377.31
2023-01-05T18:40:49.853Z,101378.25
2023-01-05T18:43:53.097Z,101377.50
2023-01-05T18:46:56.210Z,101386.31
2023-01-05T18:50:00.042Z,101390.53
2023-01-05T18:53:06.497Z,101388.13
2023-01-05T18:56:12.274Z,101397.75
2023-01-05T18:59:16.172Z,101396.97
2023-01-05T19:02:19.553Z,101393.56
2023-01-05T19:05:22.702Z,101393.56
2023-01-05T19:08:27.078Z,101409.06
2023-01-05T19:11:30.220Z,101412.53
2023-01-05T19:14:33.360Z,101414.38
2023-01-05T19:17:36.544Z,101419.53
2023-01-05T19:20:39.718Z,101422.19
2023-01-05T19:23:44.222Z,101417.97
2023-01-05T19:26:48.862Z,101421.63
2023-01-05T19:29:51.901Z,101428.31
2023-01-05T19:32:55.233Z,101430.25
2023-01-05T19:36:04.024Z,101439.75
2023-01-05T19:39:21.268Z,101446.69
2023-01-05T19:42:24.326Z,101453.00
2023-01-05T19:45:27.483Z,101445.25
2023-01-05T19:48:34.612Z,101439.25
2023-01-05T19:51:39.373Z,101441.34
2023-01-05T19:54:44.248Z,101436.41
2023-01-05T19:57:47.266Z,101441.69
2023-01-05T20:00:50.812Z,101453.06
2023-01-05T20:03:55.621Z,101469.59
2023-01-05T20:06:59.073Z,101461.91
2023-01-05T20:10:03.855Z,101478.34
2023-01-05T20:13:10.107Z,101479.22
2023-01-05T20:16:14.681Z,101476.16
2023-01-05T20:19:19.501Z,101489.13
2023-01-05T20:22:23.331Z,101477.34
2023-01-05T20:25:30.150Z,101479.34
2023-01-05T20:28:33.443Z,101491.44
2023-01-05T20:31:40.683Z,101498.56
2023-01-05T20:34:46.039Z,101499.63
2023-01-05T20:37:49.010Z,101499.81
2023-01-05T20:40:53.482Z,101506.09
2023-01-05T20:43:58.030Z,101515.53
2023-01-05T20:47:04.357Z,101524.19
2023-01-05T20:50:08.761Z,101524.19
2023-01-05T20:53:11.993Z,101527.69
2023-01-05T20:56:19.253Z,101528.53
2023-01-05T20:59:27.167Z,101527.66
2023-01-05T21:02:30.301Z,101537.97
2023-01-05T21:05:33.421Z,101536.25
2023-01-05T21:08:37.643Z,101531.00
2023-01-05T21:11:42.764Z,101536.97
2023-01-05T21:14:45.873Z,101536.06
2023-01-05T21:17:48.911Z,101549.94
2023-01-05T21:20:53.060Z,101556.06
2023-01-05T21:23:56.998Z,101549.25
2023-01-05T21:27:01.368Z,101548.56
2023-01-05T21:30:05.622Z,101551.28
2023-01-05T21:33:08.713Z,101551.63
2023-01-05T21:36:18.538Z,101550.88
2023-01-05T21:39:25.074Z,101556.13
2023-01-05T21:42:42.632Z,101561.41
2023-01-05T21:45:45.816Z,101571.09
2023-01-05T21:48:48.905Z,101561.06
2023-01-05T21:52:09.683Z,101547.06
2023-01-05T21:55:30.236Z,101546.06
2023-01-05T21:58:35.864Z,101547.06
2023-01-05T22:01:40.292Z,101554.03
2023-01-05T22:04:44.225Z,101562.47
2023-01-05T22:07:47.509Z,101564.13
2023-01-05T22:10:55.992Z,101572.78
2023-01-05T22:14:00.669Z,101570.09
2023-01-05T22:17:04.257Z,101565.88
2023-01-05T22:20:08.639Z,101568.59
2023-01-05T22:23:13.620Z,101578.88
2023-01-05T22:26:19.925Z,101577.09
2023-01-05T22:29:24.455Z,101578.03
2023-01-05T22:32:27.468Z,101580.59
2023-01-05T22:35:30.563Z,101579.53
2023-01-05T22:38:36.408Z,101579.03
2023-01-05T22:41:39.546Z,101580.22
2023-01-05T22:44:44.035Z,101581.78
2023-01-05T22:47:47.068Z,101581.16
2023-01-05T22:50:50.079Z,101584.53
2023-01-05T22:53:53.959Z,101595.28
2023-01-05T22:56:57.040Z,101591.78
2023-01-05T23:00:01.331Z,101587.81
2023-01-05T23:03:06.325Z,101589.88
2023-01-05T23:06:11.858Z,101586.59
2023-01-05T23:09:17.651Z,101590.56
2023-01-05T23:12:20.866Z,101595.88
2023-01-05T23:15:25.526Z,101589.31
2023-01-05T23:18:28.902Z,101591.34
2023-01-05T23:21:32.127Z,101586.41
2023-01-05T23:24:37.420Z,101586.63
2023-01-05T23:27:40.439Z,101586.88
2023-01-05T23:30:46.574Z,101586.16
2023-01-05T23:33:50.309Z,101586.97
2023-01-05T23:36:53.461Z,101588.00
2023-01-05T23:39:56.505Z,101585.69
2023-01-05T23:42:59.884Z,101589.22
2023-01-05T23:46:07.685Z,101579.88
2023-01-05T23:49:10.968Z,101576.50
2023-01-05T23:52:17.306Z,101560.19
2023-01-05T23:55:20.387Z,101555.19
2023-01-05T23:58:23.357Z,101550.09
